Time;durP1;ratioP1;P1;durP2;ratioP2;P2;SDS_P1;SDS_P2;PMS_P1;PMS_P2;Temp;Humidity;BMP_temperature;BMP_pressure;BME280_temperature;BME280_humidity;BME280_pressure;Samples;Min_cycle;Max_cycle;Signal;HPM_P1;HPM_P2
2022/08/10 00:00:21;;;;;;;0.95;0.50;;;19.00;99.90;;;;;;5033816;28;38309;-79
2022/08/10 00:02:52;;;;;;;1.00;0.73;;;19.00;99.90;;;;;;5035520;28;38019;-79
2022/08/10 00:05:19;;;;;;;1.40;0.70;;;18.90;99.90;;;;;;5047799;28;39488;-79
2022/08/10 00:07:46;;;;;;;1.17;0.80;;;18.90;99.90;;;;;;5034645;28;40037;-79
2022/08/10 00:10:14;;;;;;;1.98;0.80;;;18.80;99.90;;;;;;5034196;28;37169;-79
2022/08/10 00:12:41;;;;;;;1.15;0.80;;;18.80;99.90;;;;;;5054419;28;39010;-80
2022/08/10 00:15:08;;;;;;;1.73;1.00;;;18.70;99.90;;;;;;5035140;28;40701;-81
2022/08/10 00:17:35;;;;;;;1.17;0.98;;;18.70;99.90;;;;;;5032630;28;38146;-80
2022/08/10 00:20:02;;;;;;;1.08;0.80;;;18.70;99.90;;;;;;5042448;28;37457;-79
2022/08/10 00:22:28;;;;;;;1.13;0.80;;;18.70;99.90;;;;;;5036971;28;37884;-80
2022/08/10 00:24:56;;;;;;;1.13;0.73;;;18.60;99.90;;;;;;5033312;28;39492;-79
2022/08/10 00:27:23;;;;;;;1.65;0.80;;;18.60;99.90;;;;;;5037176;28;40882;-79
2022/08/10 00:29:50;;;;;;;0.98;0.85;;;18.60;99.90;;;;;;5034676;28;38924;-79
2022/08/10 00:32:17;;;;;;;2.70;1.02;;;18.60;99.90;;;;;;5040786;28;36183;-80
2022/08/10 00:34:44;;;;;;;1.67;0.80;;;18.50;99.90;;;;;;5040150;28;39729;-80
2022/08/10 00:37:11;;;;;;;0.68;0.68;;;18.50;99.90;;;;;;5040851;28;39939;-80
2022/08/10 00:39:37;;;;;;;1.48;0.70;;;18.50;99.90;;;;;;5036458;28;37025;-80
2022/08/10 00:42:08;;;;;;;1.13;0.75;;;18.50;99.90;;;;;;5043884;28;37088;-80
2022/08/10 00:44:37;;;;;;;1.33;0.70;;;18.50;99.90;;;;;;5039993;28;40623;-81
2022/08/10 00:47:04;;;;;;;1.25;1.00;;;18.40;99.90;;;;;;5040280;28;39168;-79
2022/08/10 00:49:30;;;;;;;0.73;0.50;;;18.40;99.90;;;;;;5040355;28;39644;-79
2022/08/10 00:51:57;;;;;;;2.08;0.93;;;18.40;99.90;;;;;;5037569;28;37500;-80
2022/08/10 00:54:23;;;;;;;1.10;0.98;;;18.40;99.90;;;;;;5039982;28;40848;-80
2022/08/10 00:56:50;;;;;;;1.15;0.73;;;18.40;99.90;;;;;;5041689;28;37821;-79
2022/08/10 00:59:17;;;;;;;2.60;0.70;;;18.30;99.90;;;;;;5039441;28;38631;-80
2022/08/10 01:01:43;;;;;;;1.23;0.73;;;18.30;99.90;;;;;;5048416;28;37885;-78
2022/08/10 01:04:09;;;;;;;1.63;0.90;;;18.30;99.90;;;;;;5034052;28;40458;-79
2022/08/10 01:06:47;;;;;;;2.20;0.50;;;18.30;99.90;;;;;;5037059;28;38841;-79
2022/08/10 01:09:33;;;;;;;3.40;0.80;;;18.20;99.90;;;;;;5036824;28;38580;-78
2022/08/10 01:12:13;;;;;;;2.05;0.80;;;18.20;99.90;;;;;;5038902;28;37197;-80
2022/08/10 01:15:18;;;;;;;1.23;0.80;;;18.20;99.90;;;;;;5071698;28;47213;-79
2022/08/10 01:18:13;;;;;;;2.55;0.80;;;18.10;99.90;;;;;;5055687;28;47197;-78
2022/08/10 01:20:47;;;;;;;1.40;1.17;;;18.10;99.90;;;;;;5045543;28;48701;-80
2022/08/10 01:23:15;;;;;;;0.88;0.88;;;18.00;99.90;;;;;;5047893;28;38758;-76
2022/08/10 01:25:59;;;;;;;1.40;1.30;;;18.00;99.90;;;;;;5070523;28;40090;-76
2022/08/10 01:28:57;;;;;;;2.47;0.90;;;18.00;99.90;;;;;;5050766;28;39061;-77
2022/08/10 01:31:28;;;;;;;1.02;0.93;;;18.00;99.90;;;;;;5038930;28;37669;-80
2022/08/10 01:33:57;;;;;;;1.42;0.93;;;18.00;99.90;;;;;;5044455;28;38975;-78
2022/08/10 01:36:37;;;;;;;1.10;0.90;;;17.90;99.90;;;;;;5040853;28;38637;-81
2022/08/10 01:39:05;;;;;;;1.20;1.10;;;17.90;99.90;;;;;;5033024;28;38532;-81
2022/08/10 01:41:39;;;;;;;1.05;0.90;;;17.90;99.90;;;;;;5038336;28;39290;-77
2022/08/10 01:44:11;;;;;;;1.15;0.93;;;17.90;99.90;;;;;;5037535;28;37674;-81
2022/08/10 01:46:40;;;;;;;2.10;0.90;;;17.90;99.90;;;;;;5071254;28;39441;-79
2022/08/10 01:49:09;;;;;;;2.95;1.00;;;17.80;99.90;;;;;;5052358;28;39089;-76
2022/08/10 01:51:51;;;;;;;1.42;1.20;;;17.80;99.90;;;;;;5042315;28;37865;-76
2022/08/10 01:54:21;;;;;;;;;;;17.80;99.90;;;;;;5048442;28;37810;-79
2022/08/10 01:56:51;;;;;;;1.95;1.05;;;17.70;99.90;;;;;;5036218;28;38938;-80
2022/08/10 01:59:31;;;;;;;3.53;1.08;;;17.70;99.90;;;;;;5041351;28;36862;-80
2022/08/10 02:02:03;;;;;;;1.52;0.98;;;17.70;99.90;;;;;;5036554;28;38602;-80
2022/08/10 02:04:34;;;;;;;1.17;1.08;;;17.70;99.90;;;;;;5040366;28;48412;-80
2022/08/10 02:07:02;;;;;;;1.15;1.00;;;17.70;99.90;;;;;;5049349;28;38543;-80
2022/08/10 02:09:41;;;;;;;3.28;1.00;;;17.70;99.90;;;;;;5034342;28;47429;-82
2022/08/10 02:12:11;;;;;;;1.80;1.00;;;17.60;99.90;;;;;;5033620;28;38776;-81
2022/08/10 02:14:44;;;;;;;1.17;0.98;;;17.70;99.90;;;;;;5035705;28;36094;-79
2022/08/10 02:17:15;;;;;;;1.38;0.90;;;17.70;99.90;;;;;;5035656;28;38569;-81
2022/08/10 02:19:43;;;;;;;1.15;1.00;;;17.60;99.90;;;;;;5035757;28;38577;-80
2022/08/10 02:22:11;;;;;;;1.73;1.20;;;17.60;99.90;;;;;;5035485;28;36860;-83
2022/08/10 02:24:39;;;;;;;1.35;1.05;;;17.60;99.90;;;;;;5035310;28;37750;-77
2022/08/10 02:27:07;;;;;;;2.35;1.20;;;17.50;99.90;;;;;;5034413;28;39491;-79
2022/08/10 02:29:35;;;;;;;1.50;1.17;;;17.50;99.90;;;;;;5038870;28;39860;-80
2022/08/10 02:32:01;;;;;;;1.13;1.02;;;17.40;99.90;;;;;;5036249;28;38871;-79
2022/08/10 02:34:28;;;;;;;1.20;1.10;;;17.40;99.90;;;;;;5042630;28;37157;-78
2022/08/10 02:36:57;;;;;;;3.72;1.00;;;17.40;99.90;;;;;;5037324;28;39596;-78
2022/08/10 02:39:24;;;;;;;2.10;1.17;;;17.40;99.90;;;;;;5039855;28;38426;-77
2022/08/10 02:42:07;;;;;;;1.52;1.25;;;17.30;99.90;;;;;;5035204;28;38962;-76
2022/08/10 02:44:42;;;;;;;1.77;1.17;;;17.40;99.90;;;;;;5023541;28;47012;-80
2022/08/10 02:47:32;;;;;;;2.28;1.20;;;17.30;99.90;;;;;;5010541;28;39480;-77
2022/08/10 02:50:07;;;;;;;2.65;1.35;;;17.30;99.90;;;;;;5028379;28;40048;-82
2022/08/10 02:53:13;;;;;;;1.60;1.40;;;17.30;99.90;;;;;;5023783;27;47059;-81
2022/08/10 02:55:45;;;;;;;1.83;1.13;;;17.30;99.90;;;;;;5026653;28;47315;-81
2022/08/10 02:58:18;;;;;;;2.50;1.00;;;17.30;99.90;;;;;;5036003;28;41948;-81
2022/08/10 03:00:52;;;;;;;1.35;1.25;;;17.20;99.90;;;;;;5031801;28;39304;-79
2022/08/10 03:03:25;;;;;;;1.30;1.20;;;17.20;99.90;;;;;;5030021;28;39488;-79
2022/08/10 03:05:58;;;;;;;2.15;1.50;;;17.20;99.90;;;;;;5033554;28;37808;-80
2022/08/10 03:08:29;;;;;;;1.52;1.30;;;17.10;99.90;;;;;;5017022;28;40385;-79
2022/08/10 03:10:59;;;;;;;1.53;1.43;;;17.20;99.90;;;;;;5009457;28;38954;-79
2022/08/10 03:13:26;;;;;;;1.65;1.40;;;17.20;99.90;;;;;;5030984;27;39779;-80
2022/08/10 03:15:54;;;;;;;2.28;1.50;;;17.10;99.90;;;;;;5018910;28;38187;-79
2022/08/10 03:18:23;;;;;;;2.95;1.67;;;17.10;99.90;;;;;;5032613;28;38268;-77
2022/08/10 03:20:51;;;;;;;1.83;1.58;;;17.10;99.90;;;;;;5032241;28;39151;-82
2022/08/10 03:23:22;;;;;;;1.60;1.50;;;17.20;99.90;;;;;;5045250;28;38628;-81
2022/08/10 03:25:52;;;;;;;2.75;1.50;;;17.10;99.90;;;;;;5051134;28;39576;-83
2022/08/10 03:28:20;;;;;;;3.83;1.70;;;17.10;99.90;;;;;;5037708;28;40707;-82
2022/08/10 03:30:47;;;;;;;2.10;1.48;;;17.10;99.90;;;;;;5033717;28;39462;-81
2022/08/10 03:33:16;;;;;;;1.30;1.20;;;17.10;99.90;;;;;;5033439;28;38144;-81
2022/08/10 03:35:42;;;;;;;2.30;1.30;;;17.10;99.90;;;;;;5035510;28;38050;-82
2022/08/10 03:38:08;;;;;;;3.25;1.50;;;17.10;99.90;;;;;;5034845;28;39112;-77
2022/08/10 03:40:38;;;;;;;1.63;1.33;;;17.00;99.90;;;;;;5032783;28;38968;-82
2022/08/10 03:43:06;;;;;;;3.58;1.80;;;17.00;99.90;;;;;;5034109;28;38619;-80
2022/08/10 03:45:34;;;;;;;1.98;1.77;;;17.00;99.90;;;;;;5035637;28;36390;-80
2022/08/10 03:48:02;;;;;;;2.40;1.73;;;17.00;99.90;;;;;;5037433;28;39024;-82
2022/08/10 03:50:30;;;;;;;2.05;1.73;;;16.90;99.90;;;;;;5035013;28;48891;-85
2022/08/10 03:52:57;;;;;;;1.30;1.20;;;16.90;99.90;;;;;;5049542;28;37838;-81
2022/08/10 03:55:24;;;;;;;2.75;1.98;;;17.00;99.90;;;;;;5034421;28;37153;-81
2022/08/10 03:57:50;;;;;;;3.17;1.48;;;16.90;99.90;;;;;;5036043;28;39934;-81
2022/08/10 04:00:17;;;;;;;2.65;1.48;;;16.90;99.90;;;;;;5034905;28;38568;-82
2022/08/10 04:02:48;;;;;;;3.08;1.70;;;16.90;99.90;;;;;;5035703;28;38414;-82
2022/08/10 04:05:15;;;;;;;2.60;1.52;;;16.90;99.90;;;;;;5039048;28;36525;-81
2022/08/10 04:07:43;;;;;;;3.17;1.90;;;16.90;99.90;;;;;;5032385;28;38129;-82
2022/08/10 04:10:09;;;;;;;2.25;1.83;;;16.80;99.90;;;;;;5038954;28;36915;-82
2022/08/10 04:12:36;;;;;;;1.77;1.67;;;16.80;99.90;;;;;;5046090;27;39330;-82
2022/08/10 04:15:03;;;;;;;4.45;2.17;;;16.90;99.90;;;;;;5034698;28;38890;-82
2022/08/10 04:17:29;;;;;;;3.17;2.05;;;16.80;99.90;;;;;;5029433;28;39670;-80
2022/08/10 04:19:57;;;;;;;2.58;2.03;;;16.80;99.90;;;;;;5026501;28;38459;-81
2022/08/10 04:22:25;;;;;;;2.30;1.90;;;16.80;99.90;;;;;;5035499;28;38504;-82
2022/08/10 04:25:01;;;;;;;5.00;1.90;;;16.80;99.90;;;;;;5033970;28;37220;-82
2022/08/10 04:27:28;;;;;;;3.67;2.05;;;16.80;99.90;;;;;;5034429;28;39274;-81
2022/08/10 04:29:55;;;;;;;2.20;2.00;;;16.80;99.90;;;;;;5031037;28;39248;-82
2022/08/10 04:32:22;;;;;;;7.38;2.40;;;16.80;99.90;;;;;;5033418;28;38161;-80
2022/08/10 04:34:51;;;;;;;2.17;2.05;;;16.70;99.90;;;;;;5031089;28;36885;-79
2022/08/10 04:37:20;;;;;;;3.30;2.05;;;16.80;99.90;;;;;;5050947;28;38889;-81
2022/08/10 04:39:49;;;;;;;3.97;2.45;;;16.80;99.90;;;;;;5032237;28;39037;-82
2022/08/10 04:42:16;;;;;;;3.45;2.67;;;16.80;99.90;;;;;;5031990;28;38567;-79
2022/08/10 04:44:42;;;;;;;2.88;2.35;;;16.80;99.90;;;;;;5032920;28;37581;-80
2022/08/10 04:47:08;;;;;;;4.13;3.10;;;16.80;99.90;;;;;;5029937;28;39682;-81
2022/08/10 04:49:34;;;;;;;3.85;2.40;;;16.80;99.90;;;;;;5045262;28;38955;-82
2022/08/10 04:52:00;;;;;;;3.25;2.47;;;16.70;99.90;;;;;;5033572;28;38875;-82
2022/08/10 04:54:27;;;;;;;5.07;2.97;;;16.80;99.90;;;;;;5032990;28;47461;-81
2022/08/10 04:56:53;;;;;;;2.70;2.50;;;16.80;99.90;;;;;;5030657;28;39367;-82
2022/08/10 04:59:20;;;;;;;2.78;2.33;;;16.80;99.90;;;;;;5027318;28;38794;-81
2022/08/10 05:01:46;;;;;;;2.85;2.63;;;16.90;99.90;;;;;;5060753;28;39381;-81
2022/08/10 05:04:13;;;;;;;3.08;2.72;;;16.90;99.90;;;;;;5032741;28;36415;-81
2022/08/10 05:06:39;;;;;;;3.17;2.30;;;16.90;99.90;;;;;;5067921;28;39304;-81
2022/08/10 05:09:05;;;;;;;2.47;2.28;;;16.90;99.90;;;;;;5046956;28;39799;-82
2022/08/10 05:11:31;;;;;;;4.97;2.85;;;16.90;99.90;;;;;;5048802;28;36562;-80
2022/08/10 05:13:57;;;;;;;3.22;2.60;;;16.90;99.90;;;;;;5050416;28;38540;-82
2022/08/10 05:16:23;;;;;;;3.20;2.60;;;17.00;99.90;;;;;;5024157;28;39144;-79
2022/08/10 05:18:49;;;;;;;6.72;2.45;;;17.00;99.90;;;;;;5040663;28;38001;-80
2022/08/10 05:21:15;;;;;;;3.35;2.70;;;17.10;99.90;;;;;;5037439;28;38708;-81
2022/08/10 05:23:42;;;;;;;4.93;2.13;;;17.00;99.90;;;;;;5037617;28;38356;-81
2022/08/10 05:26:08;;;;;;;2.70;2.50;;;17.10;99.90;;;;;;5032142;28;39649;-79
2022/08/10 05:28:34;;;;;;;2.65;2.45;;;17.10;99.90;;;;;;5029453;28;41592;-82
2022/08/10 05:31:00;;;;;;;3.35;2.22;;;17.10;99.90;;;;;;5034636;28;38981;-81
2022/08/10 05:33:26;;;;;;;3.33;2.70;;;17.20;99.90;;;;;;5030902;28;37956;-80
2022/08/10 05:35:52;;;;;;;5.65;2.80;;;17.20;99.90;;;;;;5017473;28;39257;-81
2022/08/10 05:38:21;;;;;;;4.28;3.10;;;17.30;99.90;;;;;;5025842;28;38032;-83
2022/08/10 05:40:48;;;;;;;3.67;3.08;;;17.30;99.90;;;;;;5032684;28;38137;-81
2022/08/10 05:43:20;;;;;;;3.88;2.80;;;17.30;99.90;;;;;;5032052;28;37019;-82
2022/08/10 05:45:48;;;;;;;4.03;2.80;;;17.30;99.90;;;;;;5030394;28;39024;-81
2022/08/10 05:48:14;;;;;;;3.60;2.50;;;17.40;99.90;;;;;;5033969;28;39038;-82
2022/08/10 05:50:40;;;;;;;7.05;2.95;;;17.80;99.90;;;;;;5042554;27;37938;-82
2022/08/10 05:53:07;;;;;;;3.03;2.60;;;17.80;99.90;;;;;;5035641;28;36174;-81
2022/08/10 05:55:33;;;;;;;5.43;3.30;;;17.70;99.90;;;;;;5033752;28;39206;-82
2022/08/10 05:58:00;;;;;;;7.80;3.40;;;17.70;99.90;;;;;;5037482;28;37027;-85
2022/08/10 06:00:26;;;;;;;4.10;3.20;;;17.70;99.90;;;;;;5035357;28;39035;-81
2022/08/10 06:02:59;;;;;;;3.85;3.22;;;17.70;99.90;;;;;;5036638;28;36634;-83
2022/08/10 06:05:29;;;;;;;5.45;3.22;;;17.70;99.90;;;;;;5048678;28;40648;-84
2022/08/10 06:08:11;;;;;;;4.28;3.28;;;17.70;99.90;;;;;;5052246;28;39396;-78
2022/08/10 06:10:39;;;;;;;3.60;3.17;;;17.80;99.90;;;;;;5034260;28;46858;-79
2022/08/10 06:15:54;;;;;;;3.88;3.13;;;17.90;99.90;;;;;;5037832;28;40033;-80
2022/08/10 06:18:22;;;;;;;3.70;3.17;;;17.90;99.90;;;;;;5030967;28;38118;-79
2022/08/10 06:20:49;;;;;;;4.03;3.25;;;18.00;99.90;;;;;;5034813;28;37259;-84
2022/08/10 06:23:16;;;;;;;6.13;3.78;;;18.00;99.90;;;;;;5035319;28;37557;-79
2022/08/10 06:25:42;;;;;;;7.50;3.33;;;18.10;99.90;;;;;;5035300;28;40192;-79
2022/08/10 06:28:15;;;;;;;4.05;3.35;;;18.20;99.90;;;;;;5033297;28;39738;-84
2022/08/10 06:30:44;;;;;;;6.43;3.38;;;18.30;99.90;;;;;;5036683;28;39001;-80
2022/08/10 06:33:11;;;;;;;5.25;3.50;;;18.40;99.90;;;;;;5038352;28;37500;-80
2022/08/10 06:35:38;;;;;;;5.88;3.35;;;18.50;99.90;;;;;;5041241;28;39814;-80
2022/08/10 06:38:06;;;;;;;3.08;2.75;;;18.50;99.90;;;;;;5040157;28;37577;-79
2022/08/10 06:40:35;;;;;;;4.18;2.97;;;18.60;99.90;;;;;;5037560;28;38437;-80
2022/08/10 06:43:06;;;;;;;3.97;2.38;;;18.70;99.90;;;;;;5034525;28;37099;-80
2022/08/10 06:45:40;;;;;;;3.17;2.60;;;18.90;99.90;;;;;;5037836;28;37868;-80
2022/08/10 06:48:25;;;;;;;2.85;2.65;;;19.00;99.90;;;;;;5054270;28;39944;-79
2022/08/10 06:50:56;;;;;;;2.88;2.65;;;19.30;99.90;;;;;;5035262;28;38501;-79
2022/08/10 06:53:29;;;;;;;4.17;2.87;;;19.50;99.90;;;;;;5036913;28;37046;-79
2022/08/10 06:56:00;;;;;;;3.03;2.47;;;19.70;99.90;;;;;;5038586;28;38633;-78
2022/08/10 06:58:34;;;;;;;3.70;2.87;;;19.90;99.90;;;;;;5038007;28;37497;-79
2022/08/10 07:01:04;;;;;;;3.35;2.92;;;20.20;99.90;;;;;;5039872;28;38143;-81
2022/08/10 07:03:35;;;;;;;3.90;2.60;;;20.40;99.90;;;;;;5037548;28;46978;-80
2022/08/10 07:06:05;;;;;;;2.85;2.63;;;20.60;99.90;;;;;;5037348;28;39662;-80
2022/08/10 07:08:33;;;;;;;4.68;2.50;;;20.80;99.90;;;;;;5034785;28;46510;-80
2022/08/10 07:11:01;;;;;;;4.28;2.58;;;21.00;99.90;;;;;;5037466;28;39072;-79
2022/08/10 07:13:30;;;;;;;3.92;2.17;;;21.20;99.90;;;;;;5051045;28;48045;-80
2022/08/10 07:15:58;;;;;;;4.90;2.03;;;21.30;99.90;;;;;;5034193;28;39571;-79
2022/08/10 07:18:25;;;;;;;5.30;2.72;;;21.60;99.90;;;;;;5033015;28;41288;-79
2022/08/10 07:20:53;;;;;;;2.67;2.15;;;21.80;99.90;;;;;;5065936;28;39714;-79
2022/08/10 07:23:22;;;;;;;3.83;2.03;;;22.00;99.90;;;;;;5035997;28;37278;-79
2022/08/10 07:25:50;;;;;;;4.20;2.30;;;22.20;99.90;;;;;;5033846;28;39403;-81
2022/08/10 07:28:17;;;;;;;4.78;2.33;;;22.50;99.90;;;;;;5037061;28;39811;-78
2022/08/10 07:30:45;;;;;;;3.00;2.15;;;22.70;99.90;;;;;;5039125;28;39313;-79
2022/08/10 07:33:15;;;;;;;5.07;1.90;;;22.90;99.90;;;;;;5043646;28;37911;-79
2022/08/10 07:35:43;;;;;;;8.88;2.50;;;22.90;99.90;;;;;;5052126;28;36461;-81
2022/08/10 07:38:17;;;;;;;4.22;2.08;;;22.90;99.90;;;;;;5074385;28;36891;-79
2022/08/10 07:40:44;;;;;;;5.32;2.47;;;22.90;99.90;;;;;;5049321;28;39760;-78
2022/08/10 07:43:12;;;;;;;2.78;2.30;;;23.00;99.90;;;;;;5038754;28;38728;-78
2022/08/10 07:45:39;;;;;;;4.00;1.88;;;23.10;99.90;;;;;;5044042;28;39921;-78
2022/08/10 07:48:16;;;;;;;3.78;2.15;;;23.10;99.90;;;;;;5037291;28;39041;-78
2022/08/10 07:50:45;;;;;;;4.47;2.67;;;23.30;99.90;;;;;;5038915;28;38826;-78
2022/08/10 07:53:22;;;;;;;2.47;2.10;;;23.40;99.90;;;;;;5039349;28;38270;-79
2022/08/10 07:55:49;;;;;;;4.15;2.03;;;23.40;99.90;;;;;;5041839;28;38634;-79
2022/08/10 07:58:17;;;;;;;2.33;1.80;;;23.50;99.90;;;;;;5029937;28;39844;-79
2022/08/10 08:00:45;;;;;;;3.60;1.95;;;23.70;99.90;;;;;;5032859;28;38238;-79
2022/08/10 08:03:13;;;;;;;3.88;1.80;;;23.80;99.90;;;;;;5065189;28;37580;-77
2022/08/10 08:05:40;;;;;;;5.07;2.47;;;23.90;99.90;;;;;;5036757;28;39400;-78
2022/08/10 08:08:08;;;;;;;2.65;1.58;;;23.90;99.90;;;;;;5039567;28;39545;-77
2022/08/10 08:10:36;;;;;;;3.40;1.98;;;23.80;99.90;;;;;;5034826;28;37930;-77
2022/08/10 08:13:04;;;;;;;2.47;1.45;;;24.10;99.90;;;;;;5038911;28;38492;-77
2022/08/10 08:15:32;;;;;;;4.15;1.95;;;24.30;99.90;;;;;;5037362;28;38526;-77
2022/08/10 08:18:01;;;;;;;3.08;1.75;;;24.30;99.90;;;;;;5037007;28;39053;-77
2022/08/10 08:20:29;;;;;;;3.35;1.88;;;24.60;99.90;;;;;;5026398;28;47323;-77
2022/08/10 08:22:55;;;;;;;2.13;1.90;;;24.80;99.90;;;;;;5037459;28;38180;-78
2022/08/10 08:25:22;;;;;;;1.98;1.73;;;25.10;99.90;;;;;;5042644;28;39021;-78
2022/08/10 08:27:55;;;;;;;3.92;2.15;;;25.30;99.90;;;;;;5038164;28;38854;-78
2022/08/10 08:30:23;;;;;;;4.82;1.85;;;25.20;99.90;;;;;;5038889;28;38785;-77
2022/08/10 08:32:51;;;;;;;4.72;1.50;;;25.20;99.90;;;;;;5037559;28;36921;-77
2022/08/10 08:35:19;;;;;;;4.70;2.03;;;25.50;99.90;;;;;;5032909;28;38708;-77
2022/08/10 08:37:51;;;;;;;4.05;1.35;;;25.60;99.90;;;;;;5039768;28;37951;-77
2022/08/10 08:40:25;;;;;;;4.75;1.98;;;25.70;99.90;;;;;;5040372;28;37760;-76
2022/08/10 08:43:19;;;;;;;4.82;2.10;;;25.80;99.90;;;;;;5048351;28;37451;-76
2022/08/10 08:45:55;;;;;;;6.65;2.05;;;25.80;99.90;;;;;;5042390;28;46527;-77
2022/08/10 08:48:49;;;;;;;4.40;1.75;;;26.10;99.90;;;;;;5049285;28;39016;-77
2022/08/10 08:51:47;;;;;;;3.53;1.80;;;26.10;99.90;;;;;;5032065;28;38258;-77
2022/08/10 08:54:48;;;;;;;3.90;1.88;;;26.30;99.90;;;;;;5039072;28;37151;-77
2022/08/10 08:57:20;;;;;;;3.05;1.63;;;26.50;99.90;;;;;;5036039;28;39795;-77
2022/08/10 09:00:12;;;;;;;1.90;1.30;;;26.60;99.90;;;;;;5035760;28;37979;-77
2022/08/10 09:02:53;;;;;;;5.63;1.80;;;26.60;99.90;;;;;;5021639;28;48632;-77
2022/08/10 09:05:44;;;;;;;2.75;1.30;;;26.60;99.90;;;;;;5029493;28;36199;-77
2022/08/10 09:08:19;;;;;;;1.80;1.10;;;26.70;99.90;;;;;;5063864;28;38409;-77
2022/08/10 09:11:12;;;;;;;4.57;1.48;;;26.90;99.90;;;;;;5038115;28;38207;-77
2022/08/10 09:14:04;;;;;;;2.10;1.48;;;27.00;99.90;;;;;;5037007;28;48006;-78
2022/08/10 09:17:18;;;;;;;3.22;1.27;;;27.10;99.90;;;;;;5050752;27;47361;-80
2022/08/10 09:20:21;;;;;;;3.95;1.60;;;27.30;99.90;;;;;;5019827;28;47462;-80
2022/08/10 09:23:00;;;;;;;3.00;1.45;;;27.50;99.90;;;;;;5037527;28;47722;-79
2022/08/10 09:25:43;;;;;;;4.28;1.75;;;27.50;99.90;;;;;;5041218;28;37008;-79
2022/08/10 09:28:22;;;;;;;3.83;1.50;;;27.60;99.90;;;;;;5078360;28;37667;-78
2022/08/10 09:30:58;;;;;;;7.72;1.70;;;27.70;99.90;;;;;;5045914;28;39571;-78
2022/08/10 09:33:44;;;;;;;4.18;1.20;;;27.80;99.90;;;;;;5042555;28;38228;-77
2022/08/10 09:36:39;;;;;;;2.03;1.40;;;27.90;99.90;;;;;;5037870;28;36872;-77
2022/08/10 09:39:30;;;;;;;1.88;1.10;;;28.20;99.90;;;;;;5043095;28;35968;-80
2022/08/10 09:42:11;;;;;;;1.92;1.67;;;28.30;99.90;;;;;;5071666;28;37891;-79
2022/08/10 09:45:00;;;;;;;6.50;1.40;;;28.40;99.90;;;;;;5075840;28;48365;-80
2022/08/10 09:47:32;;;;;;;4.40;1.13;;;28.60;99.90;;;;;;5051621;28;37382;-77
2022/08/10 09:50:19;;;;;;;4.78;1.42;;;28.60;99.90;;;;;;5066947;28;36521;-79
2022/08/10 09:53:04;;;;;;;1.63;1.10;;;28.70;99.90;;;;;;5041390;28;48728;-77
2022/08/10 09:56:06;;;;;;;2.70;1.00;;;28.80;99.90;;;;;;5076999;28;47094;-79
2022/08/10 09:59:03;;;;;;;1.13;1.00;;;29.10;99.90;;;;;;5047364;28;49654;-82
2022/08/10 10:01:43;;;;;;;3.63;1.30;;;29.20;99.90;;;;;;5046083;28;37447;-78
2022/08/10 10:04:25;;;;;;;2.13;1.10;;;29.30;99.90;;;;;;5040783;28;38328;-76
2022/08/10 10:06:55;;;;;;;4.20;1.40;;;29.50;99.90;;;;;;5039785;28;40064;-78
2022/08/10 10:09:33;;;;;;;2.42;1.27;;;29.30;99.90;;;;;;5036550;28;39100;-78
2022/08/10 10:12:08;;;;;;;1.38;1.10;;;29.10;99.90;;;;;;5043829;28;37912;-78
2022/08/10 10:18:02;;;;;;;2.05;1.05;;;29.20;99.90;;;;;;5043081;28;49098;-77
2022/08/10 10:20:57;;;;;;;4.22;1.10;;;29.00;99.90;;;;;;5074282;28;47421;-77
2022/08/10 10:23:57;;;;;;;2.25;1.10;;;29.10;99.90;;;;;;5058392;28;38204;-77
2022/08/10 10:26:36;;;;;;;1.75;1.20;;;28.90;99.90;;;;;;5032626;28;39798;-77
2022/08/10 10:29:29;;;;;;;2.85;1.17;;;29.00;99.90;;;;;;5061662;28;40810;-78
2022/08/10 10:32:23;;;;;;;3.13;1.15;;;29.50;99.90;;;;;;5042706;28;38551;-78
2022/08/10 10:35:12;;;;;;;3.47;0.98;;;29.70;99.90;;;;;;5028700;28;46777;-76
2022/08/10 10:37:39;;;;;;;1.02;0.93;;;29.80;99.90;;;;;;5025638;28;47447;-80
2022/08/10 10:40:07;;;;;;;2.80;1.15;;;29.70;99.90;;;;;;5028296;28;39479;-83
2022/08/10 10:43:02;;;;;;;4.78;1.40;;;29.80;99.90;;;;;;5029410;28;38852;-77
2022/08/10 10:45:46;;;;;;;3.03;1.08;;;29.50;99.90;;;;;;5025153;28;47015;-77
2022/08/10 10:48:38;;;;;;;2.33;1.02;;;29.00;99.90;;;;;;5032141;28;40613;-77
2022/08/10 10:51:22;;;;;;;2.88;1.00;;;29.00;99.90;;;;;;5030963;28;38496;-76
2022/08/10 10:54:14;;;;;;;3.63;1.02;;;29.50;99.90;;;;;;5060996;28;36912;-79
2022/08/10 10:56:52;;;;;;;2.85;0.85;;;29.90;99.90;;;;;;4990934;28;47107;-76
2022/08/10 10:59:49;;;;;;;4.47;1.27;;;29.50;99.90;;;;;;5029668;28;39361;-76
2022/08/10 11:02:35;;;;;;;2.63;1.20;;;29.70;99.90;;;;;;5048532;28;37298;-76
2022/08/10 11:05:29;;;;;;;2.97;1.00;;;29.60;99.90;;;;;;5068027;28;41373;-78
2022/08/10 11:08:09;;;;;;;1.02;0.90;;;29.60;99.90;;;;;;5035457;28;49616;-77
2022/08/10 11:10:47;;;;;;;2.80;1.00;;;30.00;99.90;;;;;;5038820;28;47124;-78
2022/08/10 11:13:33;;;;;;;1.85;0.90;;;30.20;99.90;;;;;;5040176;27;40322;-80
2022/08/10 11:16:19;;;;;;;1.60;1.00;;;30.00;99.90;;;;;;5034599;28;37983;-77
2022/08/10 11:18:54;;;;;;;2.30;0.80;;;30.20;99.90;;;;;;5028887;28;48358;-77
2022/08/10 11:21:43;;;;;;;4.13;0.98;;;30.50;99.90;;;;;;5040796;28;39132;-77
2022/08/10 11:24:26;;;;;;;2.28;0.90;;;30.90;99.90;;;;;;5035014;28;38523;-78
2022/08/10 11:27:12;;;;;;;1.08;0.90;;;30.60;99.90;;;;;;5039327;28;37309;-78
2022/08/10 11:30:04;;;;;;;5.30;1.00;;;30.20;99.90;;;;;;5020631;28;47268;-78
2022/08/10 11:32:49;;;;;;;1.42;0.90;;;29.90;99.90;;;;;;5035079;28;48847;-78
2022/08/10 11:35:22;;;;;;;3.45;0.95;;;30.50;99.90;;;;;;5038001;28;38426;-78
2022/08/10 11:37:54;;;;;;;3.75;1.00;;;30.60;99.90;;;;;;5058899;27;36930;-78
2022/08/10 11:40:26;;;;;;;2.33;0.98;;;30.90;99.90;;;;;;5036040;28;38182;-78
2022/08/10 11:43:13;;;;;;;1.23;0.82;;;31.20;99.90;;;;;;5042680;28;38527;-78
2022/08/10 11:45:44;;;;;;;2.80;0.93;;;30.90;99.90;;;;;;5034078;28;49628;-78
2022/08/10 11:48:19;;;;;;;1.27;0.73;;;30.90;99.90;;;;;;5036952;28;37625;-78
2022/08/10 11:50:51;;;;;;;2.45;1.00;;;31.10;99.90;;;;;;5031696;28;38191;-79
2022/08/10 11:53:32;;;;;;;1.60;0.90;;;30.90;99.90;;;;;;5033754;28;39776;-81
2022/08/10 11:56:00;;;;;;;3.75;1.40;;;30.70;99.90;;;;;;5031035;28;39159;-80
2022/08/10 12:01:26;;;;;;;1.83;0.90;;;30.80;99.90;;;;;;5038891;28;37738;-79
2022/08/10 12:03:53;;;;;;;4.93;0.95;;;31.00;99.90;;;;;;5063770;27;39970;-78
2022/08/10 12:06:21;;;;;;;2.42;0.93;;;31.10;99.90;;;;;;5035538;28;38161;-79
2022/08/10 12:08:49;;;;;;;2.55;0.90;;;31.00;99.90;;;;;;5030045;28;40049;-78
2022/08/10 12:11:21;;;;;;;2.33;0.90;;;30.60;99.90;;;;;;5042213;28;38779;-78
2022/08/10 12:13:59;;;;;;;6.28;0.80;;;30.70;99.90;;;;;;5040135;28;40592;-78
2022/08/10 12:16:30;;;;;;;1.90;0.98;;;31.00;99.90;;;;;;5049821;28;20045;-78
2022/08/10 12:19:04;;;;;;;1.27;0.75;;;30.80;99.90;;;;;;5038858;28;38175;-76
2022/08/10 12:21:51;;;;;;;5.30;1.00;;;31.00;99.90;;;;;;5075401;28;48172;-77
2022/08/10 12:24:20;;;;;;;1.38;0.75;;;31.10;99.90;;;;;;5042631;28;39264;-77
2022/08/10 12:26:55;;;;;;;0.95;0.73;;;31.30;99.90;;;;;;5035940;28;38422;-78
2022/08/10 12:29:36;;;;;;;3.33;0.70;;;31.60;99.90;;;;;;5044255;28;37124;-76
2022/08/10 12:32:11;;;;;;;2.20;0.70;;;31.60;99.90;;;;;;5071975;28;38642;-77
2022/08/10 12:34:43;;;;;;;2.30;0.80;;;31.80;99.90;;;;;;5036487;28;39666;-77
2022/08/10 12:37:24;;;;;;;0.85;0.60;;;31.70;99.90;;;;;;5036384;28;39395;-76
2022/08/10 12:39:51;;;;;;;1.58;1.02;;;31.70;99.90;;;;;;5064713;28;40622;-75
2022/08/10 12:42:25;;;;;;;1.77;0.80;;;31.80;99.90;;;;;;5036356;28;37208;-76
2022/08/10 12:45:04;;;;;;;3.10;1.05;;;31.60;99.90;;;;;;5037143;28;39592;-76
2022/08/10 12:47:59;;;;;;;3.25;1.10;;;31.40;99.90;;;;;;5035492;28;47421;-77
2022/08/10 12:50:50;;;;;;;1.13;0.75;;;31.20;99.90;;;;;;5036588;28;38952;-77
2022/08/10 12:53:38;;;;;;;1.45;0.93;;;31.70;99.90;;;;;;5064638;28;39113;-77
2022/08/10 12:56:05;;;;;;;4.07;0.80;;;32.00;99.90;;;;;;5041576;28;39501;-76
2022/08/10 12:58:36;;;;;;;1.85;1.00;;;32.00;99.90;;;;;;5042546;28;39079;-77
2022/08/10 13:01:05;;;;;;;3.50;1.20;;;32.10;99.90;;;;;;5036821;28;39114;-76
2022/08/10 13:03:34;;;;;;;2.00;0.75;;;32.00;99.90;;;;;;5038217;28;38441;-77
2022/08/10 13:06:04;;;;;;;2.85;1.00;;;31.80;99.90;;;;;;5038766;28;38847;-78
2022/08/10 13:11:25;;;;;;;4.93;1.20;;;31.10;99.90;;;;;;5016966;28;39285;-76
2022/08/10 13:13:54;;;;;;;3.92;0.73;;;31.50;99.90;;;;;;5014143;28;36014;-76
2022/08/10 13:16:23;;;;;;;1.38;1.00;;;31.90;99.90;;;;;;5063936;27;39466;-76
2022/08/10 13:18:53;;;;;;;3.22;0.80;;;32.00;99.90;;;;;;5024314;28;38384;-76
2022/08/10 13:21:19;;;;;;;1.67;0.90;;;32.10;99.90;;;;;;5015058;28;38118;-78
2022/08/10 13:23:57;;;;;;;4.60;1.10;;;31.40;99.90;;;;;;5023362;28;37354;-79
2022/08/10 13:26:25;;;;;;;2.72;1.23;;;31.40;99.90;;;;;;5023081;28;39664;-77
2022/08/10 13:29:00;;;;;;;1.58;0.95;;;31.70;99.90;;;;;;5056858;28;37176;-77
2022/08/10 13:31:30;;;;;;;3.38;1.15;;;32.00;99.90;;;;;;5013085;28;38970;-78